HunTS Point — WDH2432 — position and weather

sailwx.info

Track history (hours):
 
Tides and Currents Weather Stations Pressure Air Temp Water Temp Dewpoint Dewpoint Depression Visibility Wind Speed Wind Dir Waves Ship Positions

HunTS Point

Owner: NEW YORK, CITY OF, BROOKLYN, NY. More information available from US FCC via Universal Licensing System and Coast Guard Vessel Documentation Center.

Last reported at 2018-Feb-23 15:59 UTC. Time now 2018-Feb-23 16:12 UTC.
Position N 40°39' W 074°07'.

Length 88 m; draft 4.3 m.

Type: Tanker. MMSI: 367597530.

Date/timePositionNaut miles runAvg speedWind from/ knotsBaromVisibWave heightAir tempDewpointWater temp
2018-Feb-23 15:59N 40°39' W 074°07'4 8.2
2018-Feb-23 15:30N 40°39' W 074°02'0 0.0
2018-Feb-23 15:01N 40°39' W 074°02'0 0.0
2018-Feb-23 14:31N 40°39' W 074°02'0 0.0
2018-Feb-23 14:01N 40°39' W 074°02'0 0.0
2018-Feb-23 13:31N 40°39' W 074°02'1 2.3
2018-Feb-23 13:01N 40°40' W 074°01'5 9.5
2018-Feb-23 12:30N 40°44' W 073°58'4 7.0
2018-Feb-23 11:55N 40°47' W 073°55'0 0.0
2018-Feb-23 05:42N 40°47' W 073°55'0 0.0
2018-Feb-23 05:18N 40°47' W 073°55'0 0.0
2018-Feb-23 04:49N 40°47' W 073°55'0 0.0
2018-Feb-23 04:31N 40°47' W 073°55'0 0.0
2018-Feb-23 03:59N 40°47' W 073°55'0 0.0
2018-Feb-23 03:19N 40°47' W 073°55'0 0.0
2018-Feb-23 02:58N 40°47' W 073°55'0 0.0
2018-Feb-23 02:27N 40°47' W 073°55'0 0.0
2018-Feb-23 01:59N 40°47' W 073°55'0 0.0
2018-Feb-23 01:20N 40°47' W 073°55'0 0.0
2018-Feb-23 01:01N 40°47' W 073°55'0 0.0
2018-Feb-23 00:26N 40°47' W 073°55'0 0.0
2018-Feb-22 23:32N 40°47' W 073°55'0 2.8
2018-Feb-22 23:29N 40°47' W 073°55'3 7.2
2018-Feb-22 23:01N 40°44' W 073°58'4 7.8
2018-Feb-22 22:31N 40°41' W 074°01'5 9.4
2018-Feb-22 22:01N 40°37' W 074°03'4 7.6
2018-Feb-22 21:31N 40°34' W 073°59'6 1.9
2018-Feb-22 18:12N 40°38' W 073°52'3 7.6
2018-Feb-22 17:46N 40°35' W 073°52'2 0.9
2018-Feb-22 16:00N 40°35' W 073°50'3 4.0
2018-Feb-22 15:16N 40°34' W 073°54'4 9.6
2018-Feb-22 14:49N 40°34' W 073°59'3 9.1
2018-Feb-22 14:28N 40°36' W 074°02'510.2
2018-Feb-22 14:00N 40°41' W 074°01'5 9.6
2018-Feb-22 13:31N 40°45' W 073°58'3 2.6
2018-Feb-22 12:16N 40°47' W 073°55'0 0.0
2018-Feb-22 12:00N 40°47' W 073°55'0 0.0
2018-Feb-22 11:30N 40°47' W 073°55'0 0.0
2018-Feb-22 11:00N 40°47' W 073°55'0 0.0
2018-Feb-22 10:30N 40°47' W 073°55'0 0.0
2018-Feb-22 09:59N 40°47' W 073°55'0 0.0
2018-Feb-22 09:30N 40°47' W 073°55'0 0.0
2018-Feb-22 09:01N 40°47' W 073°55'0 0.0
2018-Feb-22 08:29N 40°47' W 073°55'0 0.0
2018-Feb-22 08:00N 40°47' W 073°55'0 0.0
2018-Feb-22 07:30N 40°47' W 073°55'0 0.0
2018-Feb-22 07:00N 40°47' W 073°55'0 0.0
2018-Feb-22 06:30N 40°47' W 073°55'0 0.0
2018-Feb-22 05:58N 40°47' W 073°55'0 0.0
2018-Feb-22 05:31N 40°47' W 073°55'0 0.0
2018-Feb-22 04:59N 40°47' W 073°55'0 0.0
2018-Feb-22 04:18N 40°47' W 073°55'0 0.0
2018-Feb-22 03:46N 40°47' W 073°55'0 0.0
2018-Feb-22 03:27N 40°47' W 073°55'0 0.0
2018-Feb-22 03:00N 40°47' W 073°55'0 0.0
2018-Feb-22 02:29N 40°47' W 073°55'0 0.0
2018-Feb-22 01:59N 40°47' W 073°55'0 0.0
2018-Feb-22 01:30N 40°47' W 073°55'0 0.0
2018-Feb-22 01:00N 40°47' W 073°55'0 0.0
2018-Feb-22 00:28N 40°47' W 073°55'0 0.0
2018-Feb-21 23:38N 40°47' W 073°55'0 0.0
2018-Feb-21 23:11N 40°47' W 073°55'1 3.8
2018-Feb-21 23:00N 40°47' W 073°56'3 5.3
2018-Feb-21 22:30N 40°45' W 073°58'3 6.0
2018-Feb-21 22:00N 40°42' W 073°60'4 7.6
2018-Feb-21 21:31N 40°39' W 074°02'0 0.2
2018-Feb-21 21:01N 40°39' W 074°02'0 0.0
2018-Feb-21 20:31N 40°39' W 074°02'0 0.0
2018-Feb-21 20:01N 40°39' W 074°02'0 0.0
2018-Feb-21 19:31N 40°39' W 074°02'2 3.1
2018-Feb-21 19:01N 40°40' W 074°01'4 8.8
2018-Feb-21 18:31N 40°44' W 073°58'4 7.1
2018-Feb-21 18:00N 40°47' W 073°56'2 4.6
2018-Feb-21 17:30N 40°48' W 073°53'0 0.0
2018-Feb-21 17:00N 40°48' W 073°53'0 0.0
2018-Feb-21 16:30N 40°48' W 073°53'0 0.0
2018-Feb-21 16:00N 40°48' W 073°53'2 4.0
2018-Feb-21 15:28N 40°48' W 073°50'0 0.0
2018-Feb-21 15:01N 40°48' W 073°50'0 0.0
2018-Feb-21 14:30N 40°48' W 073°50'0 0.0
2018-Feb-21 13:58N 40°48' W 073°50'0 0.1
2018-Feb-21 13:30N 40°48' W 073°50'4 6.6
2018-Feb-21 12:56N 40°47' W 073°55'0 0.0
2018-Feb-20 23:35N 40°47' W 073°55'1 4.3
2018-Feb-20 23:28N 40°47' W 073°56'3 6.9
2018-Feb-20 23:00N 40°44' W 073°58'3 6.3
2018-Feb-20 22:31N 40°42' W 074°00'3 3.3
2018-Feb-20 21:31N 40°39' W 074°02'0 0.0
2018-Feb-20 21:01N 40°39' W 074°02'0 0.0
2018-Feb-20 20:29N 40°39' W 074°02'0 0.0
2018-Feb-20 20:00N 40°39' W 074°02'1 1.1
2018-Feb-20 19:31N 40°39' W 074°02'5 9.1
2018-Feb-20 19:01N 40°43' W 073°58'610.6
2018-Feb-20 18:28N 40°48' W 073°55'1 2.5
2018-Feb-20 18:00N 40°48' W 073°53'0 0.0
2018-Feb-20 17:30N 40°48' W 073°53'0 0.0
2018-Feb-20 17:00N 40°48' W 073°53'0 0.0
2018-Feb-20 16:30N 40°48' W 073°53'2 3.5
2018-Feb-20 15:59N 40°48' W 073°51'0 0.7
2018-Feb-20 15:30N 40°48' W 073°50'0 0.0
2018-Feb-20 14:59N 40°48' W 073°50'0 0.0
2018-Feb-20 14:30N 40°48' W 073°50'0 0.0
2018-Feb-20 14:01N 40°48' W 073°50'1 2.4
2018-Feb-20 13:30N 40°48' W 073°52'2 4.9
2018-Feb-20 13:00N 40°47' W 073°55'0 0.0
2018-Feb-20 12:30N 40°47' W 073°55'0 0.0
2018-Feb-20 12:00N 40°47' W 073°55'0 0.0
2018-Feb-20 11:30N 40°47' W 073°55'0 0.0
2018-Feb-20 10:59N 40°47' W 073°55'0 0.0
2018-Feb-20 10:30N 40°47' W 073°55'0 0.0
2018-Feb-20 09:59N 40°47' W 073°55'0 0.0
2018-Feb-20 09:29N 40°47' W 073°55'0 0.0
2018-Feb-20 08:59N 40°47' W 073°55'0 0.0
2018-Feb-20 08:30N 40°47' W 073°55'0 0.0
2018-Feb-20 08:00N 40°47' W 073°55'0 0.0
2018-Feb-20 07:30N 40°47' W 073°55'0 0.0
2018-Feb-20 07:00N 40°47' W 073°55'0 0.0
2018-Feb-20 06:30N 40°47' W 073°55'0 0.0
2018-Feb-20 05:59N 40°47' W 073°55'0 0.0
2018-Feb-20 05:30N 40°47' W 073°55'0 0.0
2018-Feb-20 05:00N 40°47' W 073°55'0 0.0
2018-Feb-20 04:30N 40°47' W 073°55'0 0.0
2018-Feb-20 04:00N 40°47' W 073°55'0 0.0
2018-Feb-20 03:30N 40°47' W 073°55'0 0.0
2018-Feb-20 03:01N 40°47' W 073°55'0 0.0
2018-Feb-20 02:30N 40°47' W 073°55'0 0.0
2018-Feb-20 02:00N 40°47' W 073°55'0 0.0
2018-Feb-20 01:27N 40°47' W 073°55'0 0.0
2018-Feb-20 01:00N 40°47' W 073°55'0 0.0
2018-Feb-20 00:28N 40°47' W 073°55'0 0.0
2018-Feb-19 23:59N 40°47' W 073°55'0 0.0
2018-Feb-19 23:31N 40°47' W 073°55'0 0.0
2018-Feb-19 22:58N 40°47' W 073°55'0 0.0
2018-Feb-19 22:30N 40°47' W 073°55'0 0.0
2018-Feb-19 22:00N 40°47' W 073°55'0 0.0
2018-Feb-19 21:23N 40°47' W 073°55'0 0.0
2018-Feb-19 21:00N 40°47' W 073°55'0 0.0
2018-Feb-19 20:30N 40°47' W 073°55'0 0.0
2018-Feb-19 19:59N 40°47' W 073°55'0 0.0
2018-Feb-19 19:30N 40°47' W 073°55'0 0.0
2018-Feb-19 19:00N 40°47' W 073°55'0 0.0
2018-Feb-19 18:31N 40°47' W 073°55'0 0.0
2018-Feb-19 18:00N 40°47' W 073°55'0 0.0
2018-Feb-19 17:30N 40°47' W 073°55'0 0.0
2018-Feb-19 17:00N 40°47' W 073°55'0 0.0
2018-Feb-19 16:29N 40°47' W 073°55'0 0.0
2018-Feb-19 15:59N 40°47' W 073°55'0 0.0
2018-Feb-19 15:30N 40°47' W 073°55'0 0.0
2018-Feb-19 15:00N 40°47' W 073°55'0 0.0
2018-Feb-19 14:29N 40°47' W 073°55'0 0.0
2018-Feb-19 14:00N 40°47' W 073°55'0 0.0
2018-Feb-19 13:30N 40°47' W 073°55'0 0.0
2018-Feb-19 13:00N 40°47' W 073°55'0 0.0
2018-Feb-19 12:29N 40°47' W 073°55'0 0.0
2018-Feb-19 11:59N 40°47' W 073°55'0 0.0
2018-Feb-19 11:30N 40°47' W 073°55'0 0.0
2018-Feb-19 10:59N 40°47' W 073°55'0 0.0
2018-Feb-19 10:30N 40°47' W 073°55'0 0.0
2018-Feb-19 10:00N 40°47' W 073°55'0 0.0
2018-Feb-19 09:30N 40°47' W 073°55'0 0.0
2018-Feb-19 09:00N 40°47' W 073°55'0 0.0
2018-Feb-19 08:30N 40°47' W 073°55'0 0.0
2018-Feb-19 08:00N 40°47' W 073°55'0 0.0
2018-Feb-19 07:30N 40°47' W 073°55'0 0.0
2018-Feb-19 06:59N 40°47' W 073°55'0 0.0
2018-Feb-19 06:30N 40°47' W 073°55'0 0.0
2018-Feb-19 06:00N 40°47' W 073°55'0 0.0
2018-Feb-19 05:30N 40°47' W 073°55'0 0.0
2018-Feb-19 05:00N 40°47' W 073°55'0 0.0
2018-Feb-19 04:30N 40°47' W 073°55'0 0.0
2018-Feb-19 04:00N 40°47' W 073°55'0 0.0
2018-Feb-19 03:29N 40°47' W 073°55'0 0.0
2018-Feb-19 03:00N 40°47' W 073°55'0 0.0
2018-Feb-19 02:30N 40°47' W 073°55'0 0.0
2018-Feb-19 02:00N 40°47' W 073°55'0 0.0
2018-Feb-19 01:30N 40°47' W 073°55'0 0.0
2018-Feb-19 01:01N 40°47' W 073°55'0 0.0
2018-Feb-19 00:30N 40°47' W 073°55'0 0.0
2018-Feb-19 00:00N 40°47' W 073°55'0 0.0
2018-Feb-18 23:29N 40°47' W 073°55'0 0.0
2018-Feb-18 22:30N 40°47' W 073°55'0 0.0
2018-Feb-18 21:58N 40°47' W 073°55'0 0.0
2018-Feb-18 21:27N 40°47' W 073°55'0 0.0
2018-Feb-18 20:58N 40°47' W 073°55'0 0.0
2018-Feb-18 20:27N 40°47' W 073°55'0 0.0
2018-Feb-18 19:44N 40°47' W 073°55'0 0.0
2018-Feb-18 19:30N 40°47' W 073°55'0 0.0
2018-Feb-18 19:00N 40°47' W 073°55'0 0.0
2018-Feb-18 18:30N 40°47' W 073°55'0 0.0
2018-Feb-18 18:00N 40°47' W 073°55'0 0.0
2018-Feb-18 17:27N 40°47' W 073°55'0 0.0
2018-Feb-18 16:59N 40°47' W 073°55'0 0.0
2018-Feb-18 16:30N 40°47' W 073°55'0 0.0
2018-Feb-18 15:12N 40°47' W 073°55'0 0.0
2018-Feb-18 15:00N 40°47' W 073°55'0 0.0
2018-Feb-18 14:30N 40°47' W 073°55'0 0.0
2018-Feb-18 13:57N 40°47' W 073°55'0 0.0
2018-Feb-18 13:29N 40°47' W 073°55'0 0.0
2018-Feb-18 13:00N 40°47' W 073°55'0 0.0
2018-Feb-18 12:30N 40°47' W 073°55'0 0.0
2018-Feb-18 12:00N 40°47' W 073°55'0 0.0
2018-Feb-18 11:31N 40°47' W 073°55'0 0.0
2018-Feb-18 10:57N 40°47' W 073°55'0 0.0
2018-Feb-18 10:31N 40°47' W 073°55'0 0.0
2018-Feb-18 09:58N 40°47' W 073°55'0 0.0
2018-Feb-18 09:30N 40°47' W 073°55'0 0.0
2018-Feb-18 09:00N 40°47' W 073°55'0 0.0
2018-Feb-18 08:31N 40°47' W 073°55'0 0.0
2018-Feb-18 07:59N 40°47' W 073°55'0 0.0
2018-Feb-18 07:30N 40°47' W 073°55'0 0.0
2018-Feb-18 07:00N 40°47' W 073°55'0 0.0
2018-Feb-18 06:30N 40°47' W 073°55'0 0.0
2018-Feb-18 06:00N 40°47' W 073°55'0 0.0
2018-Feb-18 05:30N 40°47' W 073°55'0 0.0
2018-Feb-18 04:58N 40°47' W 073°55'0 0.0
2018-Feb-18 04:30N 40°47' W 073°55'0 0.0
2018-Feb-18 04:01N 40°47' W 073°55'0 0.0
2018-Feb-18 03:31N 40°47' W 073°55'0 0.0
2018-Feb-18 02:59N 40°47' W 073°55'0 0.0
2018-Feb-18 02:30N 40°47' W 073°55'0 0.0
2018-Feb-18 02:01N 40°47' W 073°55'0 0.0
2018-Feb-18 01:30N 40°47' W 073°55'0 0.0
2018-Feb-18 00:58N 40°47' W 073°55'0 0.0
2018-Feb-18 00:31N 40°47' W 073°55'1 1.2
2018-Feb-18 00:00N 40°48' W 073°54'2 3.7
2018-Feb-17 23:30N 40°48' W 073°52'1 2.6
2018-Feb-17 22:59N 40°48' W 073°50'0 0.0
2018-Feb-17 22:30N 40°48' W 073°50'0 0.0
2018-Feb-17 22:00N 40°48' W 073°50'0 0.0
2018-Feb-17 21:30N 40°48' W 073°50'0 0.3
2018-Feb-17 21:00N 40°48' W 073°50'4 1.5
2018-Feb-17 18:39N 40°47' W 073°55'0 1.0
2018-Feb-17 18:31N 40°47' W 073°55'3 5.3
2018-Feb-17 18:00N 40°45' W 073°58'3 6.1
2018-Feb-17 17:31N 40°42' W 073°59'3 6.7
2018-Feb-17 17:01N 40°40' W 074°01'1 2.1
2018-Feb-17 16:31N 40°39' W 074°02'0 0.0
2018-Feb-17 16:01N 40°39' W 074°02'0 0.0
2018-Feb-17 15:31N 40°39' W 074°02'0 0.0
2018-Feb-17 15:01N 40°39' W 074°02'0 0.0
2018-Feb-17 14:30N 40°39' W 074°02'2 4.2
2018-Feb-17 14:01N 40°41' W 074°01'4 7.3
2018-Feb-17 13:30N 40°43' W 073°58'3 6.8
2018-Feb-17 13:00N 40°47' W 073°56'1 0.1
2018-Feb-16 19:23N 40°47' W 073°55'0 0.0
2018-Feb-16 18:28N 40°47' W 073°55'0 0.0
2018-Feb-16 16:22N 40°47' W 073°55'1 2.6
2018-Feb-16 16:00N 40°48' W 073°54'3 5.9
2018-Feb-16 15:30N 40°48' W 073°50'0 0.1
2018-Feb-16 15:00N 40°48' W 073°50'0 0.0
2018-Feb-16 14:30N 40°48' W 073°50'0 0.0
2018-Feb-16 13:56N 40°48' W 073°50'0 0.0
2018-Feb-16 13:28N 40°48' W 073°50'0 0.4
2018-Feb-16 12:59N 40°48' W 073°50'4 1.5
2018-Feb-16 10:29N 40°47' W 073°55'0 0.0
2018-Feb-16 09:47N 40°47' W 073°55'0 0.0
2018-Feb-15 22:04N 40°47' W 073°55'0 0.0
2018-Feb-15 22:00N 40°47' W 073°55'0 0.0
2018-Feb-15 21:06N 40°47' W 073°55'0 0.0
2018-Feb-15 20:21N 40°47' W 073°55'0 0.0
2018-Feb-15 20:00N 40°47' W 073°55'0 0.0
2018-Feb-15 19:26N 40°47' W 073°55'0 0.0
2018-Feb-15 18:58N 40°47' W 073°55'0 0.0
2018-Feb-15 18:22N 40°47' W 073°55'0 0.0
2018-Feb-15 17:51N 40°47' W 073°55'0 0.0
2018-Feb-15 16:51N 40°47' W 073°55'0 0.0
2018-Feb-14 18:32N 40°47' W 073°55'0 3.5
2018-Feb-14 18:28N 40°47' W 073°55'2 5.3
2018-Feb-14 18:01N 40°45' W 073°57'3 6.6
2018-Feb-14 17:31N 40°42' W 073°59'4 7.8
2018-Feb-14 17:01N 40°39' W 074°02'0 0.8
2018-Feb-14 16:31N 40°39' W 074°02'0 0.0
2018-Feb-14 16:00N 40°39' W 074°02'0 0.0
2018-Feb-14 15:31N 40°39' W 074°02'0 0.0
2018-Feb-14 15:01N 40°39' W 074°02'0 0.1
2018-Feb-14 14:31N 40°39' W 074°02'4 7.3
2018-Feb-14 14:01N 40°42' W 074°00'3 6.9
2018-Feb-14 13:31N 40°45' W 073°58'3 6.0
2018-Feb-14 13:00N 40°47' W 073°55'0 0.0
2018-Feb-14 12:30N 40°47' W 073°55'0 0.0
2018-Feb-14 12:00N 40°47' W 073°55'0 0.0
2018-Feb-14 11:30N 40°47' W 073°55'0 0.0
2018-Feb-14 10:59N 40°47' W 073°55'0 0.0
2018-Feb-14 10:30N 40°47' W 073°55'0 0.0
2018-Feb-14 10:00N 40°47' W 073°55'0 0.0
2018-Feb-14 09:30N 40°47' W 073°55'0 0.0
2018-Feb-14 09:01N 40°47' W 073°55'0 0.0
2018-Feb-14 08:30N 40°47' W 073°55'0 0.0
2018-Feb-14 08:01N 40°47' W 073°55'0 0.0
2018-Feb-14 07:30N 40°47' W 073°55'0 0.0
2018-Feb-14 07:00N 40°47' W 073°55'0 0.0
2018-Feb-14 06:30N 40°47' W 073°55'0 0.0
2018-Feb-14 06:00N 40°47' W 073°55'0 0.0
2018-Feb-14 05:31N 40°47' W 073°55'0 0.0
2018-Feb-14 05:00N 40°47' W 073°55'0 0.0
2018-Feb-14 04:30N 40°47' W 073°55'0 0.0
2018-Feb-14 04:00N 40°47' W 073°55'0 0.0
2018-Feb-14 03:30N 40°47' W 073°55'0 0.0
2018-Feb-14 03:00N 40°47' W 073°55'0 0.0
2018-Feb-14 02:30N 40°47' W 073°55'0 0.0
2018-Feb-14 02:00N 40°47' W 073°55'0 0.0
2018-Feb-14 01:31N 40°47' W 073°55'0 0.0
2018-Feb-14 01:00N 40°47' W 073°55'0 0.0
2018-Feb-14 00:30N 40°47' W 073°55'0 0.0
2018-Feb-13 23:59N 40°47' W 073°55'0 0.0
2018-Feb-13 23:30N 40°47' W 073°55'0 0.0
2018-Feb-13 23:00N 40°47' W 073°55'0 0.0
2018-Feb-13 22:30N 40°47' W 073°55'0 0.0
2018-Feb-13 22:00N 40°47' W 073°55'0 0.0
2018-Feb-13 21:28N 40°47' W 073°55'0 0.0
2018-Feb-13 20:59N 40°47' W 073°55'0 0.0
2018-Feb-13 20:27N 40°47' W 073°55'0 0.0
2018-Feb-13 20:00N 40°47' W 073°55'0 0.0
2018-Feb-13 19:27N 40°47' W 073°55'0 0.0
2018-Feb-13 18:50N 40°47' W 073°55'0 1.5
2018-Feb-13 18:30N 40°47' W 073°56'3 6.9
2018-Feb-13 18:01N 40°44' W 073°58'3 6.7
2018-Feb-13 17:30N 40°41' W 074°01'3 5.6
2018-Feb-13 17:00N 40°39' W 074°02'0 0.0
2018-Feb-13 16:31N 40°39' W 074°02'0 0.0
2018-Feb-13 16:00N 40°39' W 074°02'  
Track history (hours):
 
Tides and Currents Weather Stations Pressure Air Temp Water Temp Dewpoint Dewpoint Depression Visibility Wind Speed Wind Dir Waves Ship Positions

HunTS Point

Owner: NEW YORK, CITY OF, BROOKLYN, NY. More information available from US FCC via Universal Licensing System and Coast Guard Vessel Documentation Center.

Last reported at 2018-Feb-23 15:59 UTC. Time now 2018-Feb-23 16:12 UTC.
Position N 40°39' W 074°07'.

Length 88 m; draft 4.3 m.

Type: Tanker. MMSI: 367597530.

Date/timePositionNaut miles runAvg speedWind from/ knotsBaromVisibWave heightAir tempDewpointWater temp
2018-Feb-23 15:59N 40°39' W 074°07'4 8.2
2018-Feb-23 15:30N 40°39' W 074°02'0 0.0
2018-Feb-23 15:01N 40°39' W 074°02'0 0.0
2018-Feb-23 14:31N 40°39' W 074°02'0 0.0
2018-Feb-23 14:01N 40°39' W 074°02'0 0.0
2018-Feb-23 13:31N 40°39' W 074°02'1 2.3
2018-Feb-23 13:01N 40°40' W 074°01'5 9.5
2018-Feb-23 12:30N 40°44' W 073°58'4 7.0
2018-Feb-23 11:55N 40°47' W 073°55'0 0.0
2018-Feb-23 05:42N 40°47' W 073°55'0 0.0
2018-Feb-23 05:18N 40°47' W 073°55'0 0.0
2018-Feb-23 04:49N 40°47' W 073°55'0 0.0
2018-Feb-23 04:31N 40°47' W 073°55'0 0.0
2018-Feb-23 03:59N 40°47' W 073°55'0 0.0
2018-Feb-23 03:19N 40°47' W 073°55'0 0.0
2018-Feb-23 02:58N 40°47' W 073°55'0 0.0
2018-Feb-23 02:27N 40°47' W 073°55'0 0.0
2018-Feb-23 01:59N 40°47' W 073°55'0 0.0
2018-Feb-23 01:20N 40°47' W 073°55'0 0.0
2018-Feb-23 01:01N 40°47' W 073°55'0 0.0
2018-Feb-23 00:26N 40°47' W 073°55'0 0.0
2018-Feb-22 23:32N 40°47' W 073°55'0 2.8
2018-Feb-22 23:29N 40°47' W 073°55'3 7.2
2018-Feb-22 23:01N 40°44' W 073°58'4 7.8
2018-Feb-22 22:31N 40°41' W 074°01'5 9.4
2018-Feb-22 22:01N 40°37' W 074°03'4 7.6
2018-Feb-22 21:31N 40°34' W 073°59'6 1.9
2018-Feb-22 18:12N 40°38' W 073°52'3 7.6
2018-Feb-22 17:46N 40°35' W 073°52'2 0.9
2018-Feb-22 16:00N 40°35' W 073°50'3 4.0
2018-Feb-22 15:16N 40°34' W 073°54'4 9.6
2018-Feb-22 14:49N 40°34' W 073°59'3 9.1
2018-Feb-22 14:28N 40°36' W 074°02'510.2
2018-Feb-22 14:00N 40°41' W 074°01'5 9.6
2018-Feb-22 13:31N 40°45' W 073°58'3 2.6
2018-Feb-22 12:16N 40°47' W 073°55'0 0.0
2018-Feb-22 12:00N 40°47' W 073°55'0 0.0
2018-Feb-22 11:30N 40°47' W 073°55'0 0.0
2018-Feb-22 11:00N 40°47' W 073°55'0 0.0
2018-Feb-22 10:30N 40°47' W 073°55'0 0.0
2018-Feb-22 09:59N 40°47' W 073°55'0 0.0
2018-Feb-22 09:30N 40°47' W 073°55'0 0.0
2018-Feb-22 09:01N 40°47' W 073°55'0 0.0
2018-Feb-22 08:29N 40°47' W 073°55'0 0.0
2018-Feb-22 08:00N 40°47' W 073°55'0 0.0
2018-Feb-22 07:30N 40°47' W 073°55'0 0.0
2018-Feb-22 07:00N 40°47' W 073°55'0 0.0
2018-Feb-22 06:30N 40°47' W 073°55'0 0.0
2018-Feb-22 05:58N 40°47' W 073°55'0 0.0
2018-Feb-22 05:31N 40°47' W 073°55'0 0.0
2018-Feb-22 04:59N 40°47' W 073°55'0 0.0
2018-Feb-22 04:18N 40°47' W 073°55'0 0.0
2018-Feb-22 03:46N 40°47' W 073°55'0 0.0
2018-Feb-22 03:27N 40°47' W 073°55'0 0.0
2018-Feb-22 03:00N 40°47' W 073°55'0 0.0
2018-Feb-22 02:29N 40°47' W 073°55'0 0.0
2018-Feb-22 01:59N 40°47' W 073°55'0 0.0
2018-Feb-22 01:30N 40°47' W 073°55'0 0.0
2018-Feb-22 01:00N 40°47' W 073°55'0 0.0
2018-Feb-22 00:28N 40°47' W 073°55'0 0.0
2018-Feb-21 23:38N 40°47' W 073°55'0 0.0
2018-Feb-21 23:11N 40°47' W 073°55'1 3.8
2018-Feb-21 23:00N 40°47' W 073°56'3 5.3
2018-Feb-21 22:30N 40°45' W 073°58'3 6.0
2018-Feb-21 22:00N 40°42' W 073°60'4 7.6
2018-Feb-21 21:31N 40°39' W 074°02'0 0.2
2018-Feb-21 21:01N 40°39' W 074°02'0 0.0
2018-Feb-21 20:31N 40°39' W 074°02'0 0.0
2018-Feb-21 20:01N 40°39' W 074°02'0 0.0
2018-Feb-21 19:31N 40°39' W 074°02'2 3.1
2018-Feb-21 19:01N 40°40' W 074°01'4 8.8
2018-Feb-21 18:31N 40°44' W 073°58'4 7.1
2018-Feb-21 18:00N 40°47' W 073°56'2 4.6
2018-Feb-21 17:30N 40°48' W 073°53'0 0.0
2018-Feb-21 17:00N 40°48' W 073°53'0 0.0
2018-Feb-21 16:30N 40°48' W 073°53'0 0.0
2018-Feb-21 16:00N 40°48' W 073°53'2 4.0
2018-Feb-21 15:28N 40°48' W 073°50'0 0.0
2018-Feb-21 15:01N 40°48' W 073°50'0 0.0
2018-Feb-21 14:30N 40°48' W 073°50'0 0.0
2018-Feb-21 13:58N 40°48' W 073°50'0 0.1
2018-Feb-21 13:30N 40°48' W 073°50'4 6.6
2018-Feb-21 12:56N 40°47' W 073°55'0 0.0
2018-Feb-20 23:35N 40°47' W 073°55'1 4.3
2018-Feb-20 23:28N 40°47' W 073°56'3 6.9
2018-Feb-20 23:00N 40°44' W 073°58'3 6.3
2018-Feb-20 22:31N 40°42' W 074°00'3 3.3
2018-Feb-20 21:31N 40°39' W 074°02'0 0.0
2018-Feb-20 21:01N 40°39' W 074°02'0 0.0
2018-Feb-20 20:29N 40°39' W 074°02'0 0.0
2018-Feb-20 20:00N 40°39' W 074°02'1 1.1
2018-Feb-20 19:31N 40°39' W 074°02'5 9.1
2018-Feb-20 19:01N 40°43' W 073°58'610.6
2018-Feb-20 18:28N 40°48' W 073°55'1 2.5
2018-Feb-20 18:00N 40°48' W 073°53'0 0.0
2018-Feb-20 17:30N 40°48' W 073°53'0 0.0
2018-Feb-20 17:00N 40°48' W 073°53'0 0.0
2018-Feb-20 16:30N 40°48' W 073°53'2 3.5
2018-Feb-20 15:59N 40°48' W 073°51'0 0.7
2018-Feb-20 15:30N 40°48' W 073°50'0 0.0
2018-Feb-20 14:59N 40°48' W 073°50'0 0.0
2018-Feb-20 14:30N 40°48' W 073°50'0 0.0
2018-Feb-20 14:01N 40°48' W 073°50'1 2.4
2018-Feb-20 13:30N 40°48' W 073°52'2 4.9
2018-Feb-20 13:00N 40°47' W 073°55'0 0.0
2018-Feb-20 12:30N 40°47' W 073°55'0 0.0
2018-Feb-20 12:00N 40°47' W 073°55'0 0.0
2018-Feb-20 11:30N 40°47' W 073°55'0 0.0
2018-Feb-20 10:59N 40°47' W 073°55'0 0.0
2018-Feb-20 10:30N 40°47' W 073°55'0 0.0
2018-Feb-20 09:59N 40°47' W 073°55'0 0.0
2018-Feb-20 09:29N 40°47' W 073°55'0 0.0
2018-Feb-20 08:59N 40°47' W 073°55'0 0.0
2018-Feb-20 08:30N 40°47' W 073°55'0 0.0
2018-Feb-20 08:00N 40°47' W 073°55'0 0.0
2018-Feb-20 07:30N 40°47' W 073°55'0 0.0
2018-Feb-20 07:00N 40°47' W 073°55'0 0.0
2018-Feb-20 06:30N 40°47' W 073°55'0 0.0
2018-Feb-20 05:59N 40°47' W 073°55'0 0.0
2018-Feb-20 05:30N 40°47' W 073°55'0 0.0
2018-Feb-20 05:00N 40°47' W 073°55'0 0.0
2018-Feb-20 04:30N 40°47' W 073°55'0 0.0
2018-Feb-20 04:00N 40°47' W 073°55'0 0.0
2018-Feb-20 03:30N 40°47' W 073°55'0 0.0
2018-Feb-20 03:01N 40°47' W 073°55'0 0.0
2018-Feb-20 02:30N 40°47' W 073°55'0 0.0
2018-Feb-20 02:00N 40°47' W 073°55'0 0.0
2018-Feb-20 01:27N 40°47' W 073°55'0 0.0
2018-Feb-20 01:00N 40°47' W 073°55'0 0.0
2018-Feb-20 00:28N 40°47' W 073°55'0 0.0
2018-Feb-19 23:59N 40°47' W 073°55'0 0.0
2018-Feb-19 23:31N 40°47' W 073°55'0 0.0
2018-Feb-19 22:58N 40°47' W 073°55'0 0.0
2018-Feb-19 22:30N 40°47' W 073°55'0 0.0
2018-Feb-19 22:00N 40°47' W 073°55'0 0.0
2018-Feb-19 21:23N 40°47' W 073°55'0 0.0
2018-Feb-19 21:00N 40°47' W 073°55'0 0.0
2018-Feb-19 20:30N 40°47' W 073°55'0 0.0
2018-Feb-19 19:59N 40°47' W 073°55'0 0.0
2018-Feb-19 19:30N 40°47' W 073°55'0 0.0
2018-Feb-19 19:00N 40°47' W 073°55'0 0.0
2018-Feb-19 18:31N 40°47' W 073°55'0 0.0
2018-Feb-19 18:00N 40°47' W 073°55'0 0.0
2018-Feb-19 17:30N 40°47' W 073°55'0 0.0
2018-Feb-19 17:00N 40°47' W 073°55'0 0.0
2018-Feb-19 16:29N 40°47' W 073°55'0 0.0
2018-Feb-19 15:59N 40°47' W 073°55'0 0.0
2018-Feb-19 15:30N 40°47' W 073°55'0 0.0
2018-Feb-19 15:00N 40°47' W 073°55'0 0.0
2018-Feb-19 14:29N 40°47' W 073°55'0 0.0
2018-Feb-19 14:00N 40°47' W 073°55'0 0.0
2018-Feb-19 13:30N 40°47' W 073°55'0 0.0
2018-Feb-19 13:00N 40°47' W 073°55'0 0.0
2018-Feb-19 12:29N 40°47' W 073°55'0 0.0
2018-Feb-19 11:59N 40°47' W 073°55'0 0.0
2018-Feb-19 11:30N 40°47' W 073°55'0 0.0
2018-Feb-19 10:59N 40°47' W 073°55'0 0.0
2018-Feb-19 10:30N 40°47' W 073°55'0 0.0
2018-Feb-19 10:00N 40°47' W 073°55'0 0.0
2018-Feb-19 09:30N 40°47' W 073°55'0 0.0
2018-Feb-19 09:00N 40°47' W 073°55'0 0.0
2018-Feb-19 08:30N 40°47' W 073°55'0 0.0
2018-Feb-19 08:00N 40°47' W 073°55'0 0.0
2018-Feb-19 07:30N 40°47' W 073°55'0 0.0
2018-Feb-19 06:59N 40°47' W 073°55'0 0.0
2018-Feb-19 06:30N 40°47' W 073°55'0 0.0
2018-Feb-19 06:00N 40°47' W 073°55'0 0.0
2018-Feb-19 05:30N 40°47' W 073°55'0 0.0
2018-Feb-19 05:00N 40°47' W 073°55'0 0.0
2018-Feb-19 04:30N 40°47' W 073°55'0 0.0
2018-Feb-19 04:00N 40°47' W 073°55'0 0.0
2018-Feb-19 03:29N 40°47' W 073°55'0 0.0
2018-Feb-19 03:00N 40°47' W 073°55'0 0.0
2018-Feb-19 02:30N 40°47' W 073°55'0 0.0
2018-Feb-19 02:00N 40°47' W 073°55'0 0.0
2018-Feb-19 01:30N 40°47' W 073°55'0 0.0
2018-Feb-19 01:01N 40°47' W 073°55'0 0.0
2018-Feb-19 00:30N 40°47' W 073°55'0 0.0
2018-Feb-19 00:00N 40°47' W 073°55'0 0.0
2018-Feb-18 23:29N 40°47' W 073°55'0 0.0
2018-Feb-18 22:30N 40°47' W 073°55'0 0.0
2018-Feb-18 21:58N 40°47' W 073°55'0 0.0
2018-Feb-18 21:27N 40°47' W 073°55'0 0.0
2018-Feb-18 20:58N 40°47' W 073°55'0 0.0
2018-Feb-18 20:27N 40°47' W 073°55'0 0.0
2018-Feb-18 19:44N 40°47' W 073°55'0 0.0
2018-Feb-18 19:30N 40°47' W 073°55'0 0.0
2018-Feb-18 19:00N 40°47' W 073°55'0 0.0
2018-Feb-18 18:30N 40°47' W 073°55'0 0.0
2018-Feb-18 18:00N 40°47' W 073°55'0 0.0
2018-Feb-18 17:27N 40°47' W 073°55'0 0.0
2018-Feb-18 16:59N 40°47' W 073°55'0 0.0
2018-Feb-18 16:30N 40°47' W 073°55'0 0.0
2018-Feb-18 15:12N 40°47' W 073°55'0 0.0
2018-Feb-18 15:00N 40°47' W 073°55'0 0.0
2018-Feb-18 14:30N 40°47' W 073°55'0 0.0
2018-Feb-18 13:57N 40°47' W 073°55'0 0.0
2018-Feb-18 13:29N 40°47' W 073°55'0 0.0
2018-Feb-18 13:00N 40°47' W 073°55'0 0.0
2018-Feb-18 12:30N 40°47' W 073°55'0 0.0
2018-Feb-18 12:00N 40°47' W 073°55'0 0.0
2018-Feb-18 11:31N 40°47' W 073°55'0 0.0
2018-Feb-18 10:57N 40°47' W 073°55'0 0.0
2018-Feb-18 10:31N 40°47' W 073°55'0 0.0
2018-Feb-18 09:58N 40°47' W 073°55'0 0.0
2018-Feb-18 09:30N 40°47' W 073°55'0 0.0
2018-Feb-18 09:00N 40°47' W 073°55'0 0.0
2018-Feb-18 08:31N 40°47' W 073°55'0 0.0
2018-Feb-18 07:59N 40°47' W 073°55'0 0.0
2018-Feb-18 07:30N 40°47' W 073°55'0 0.0
2018-Feb-18 07:00N 40°47' W 073°55'0 0.0
2018-Feb-18 06:30N 40°47' W 073°55'0 0.0
2018-Feb-18 06:00N 40°47' W 073°55'0 0.0
2018-Feb-18 05:30N 40°47' W 073°55'0 0.0
2018-Feb-18 04:58N 40°47' W 073°55'0 0.0
2018-Feb-18 04:30N 40°47' W 073°55'0 0.0
2018-Feb-18 04:01N 40°47' W 073°55'0 0.0
2018-Feb-18 03:31N 40°47' W 073°55'0 0.0
2018-Feb-18 02:59N 40°47' W 073°55'0 0.0
2018-Feb-18 02:30N 40°47' W 073°55'0 0.0
2018-Feb-18 02:01N 40°47' W 073°55'0 0.0
2018-Feb-18 01:30N 40°47' W 073°55'0 0.0
2018-Feb-18 00:58N 40°47' W 073°55'0 0.0
2018-Feb-18 00:31N 40°47' W 073°55'1 1.2
2018-Feb-18 00:00N 40°48' W 073°54'2 3.7
2018-Feb-17 23:30N 40°48' W 073°52'1 2.6
2018-Feb-17 22:59N 40°48' W 073°50'0 0.0
2018-Feb-17 22:30N 40°48' W 073°50'0 0.0
2018-Feb-17 22:00N 40°48' W 073°50'0 0.0
2018-Feb-17 21:30N 40°48' W 073°50'0 0.3
2018-Feb-17 21:00N 40°48' W 073°50'4 1.5
2018-Feb-17 18:39N 40°47' W 073°55'0 1.0
2018-Feb-17 18:31N 40°47' W 073°55'3 5.3
2018-Feb-17 18:00N 40°45' W 073°58'3 6.1
2018-Feb-17 17:31N 40°42' W 073°59'3 6.7
2018-Feb-17 17:01N 40°40' W 074°01'1 2.1
2018-Feb-17 16:31N 40°39' W 074°02'0 0.0
2018-Feb-17 16:01N 40°39' W 074°02'0 0.0
2018-Feb-17 15:31N 40°39' W 074°02'0 0.0
2018-Feb-17 15:01N 40°39' W 074°02'0 0.0
2018-Feb-17 14:30N 40°39' W 074°02'2 4.2
2018-Feb-17 14:01N 40°41' W 074°01'4 7.3
2018-Feb-17 13:30N 40°43' W 073°58'3 6.8
2018-Feb-17 13:00N 40°47' W 073°56'1 0.1
2018-Feb-16 19:23N 40°47' W 073°55'0 0.0
2018-Feb-16 18:28N 40°47' W 073°55'0 0.0
2018-Feb-16 16:22N 40°47' W 073°55'1 2.6
2018-Feb-16 16:00N 40°48' W 073°54'3 5.9
2018-Feb-16 15:30N 40°48' W 073°50'0 0.1
2018-Feb-16 15:00N 40°48' W 073°50'0 0.0
2018-Feb-16 14:30N 40°48' W 073°50'0 0.0
2018-Feb-16 13:56N 40°48' W 073°50'0 0.0
2018-Feb-16 13:28N 40°48' W 073°50'0 0.4
2018-Feb-16 12:59N 40°48' W 073°50'4 1.5
2018-Feb-16 10:29N 40°47' W 073°55'0 0.0
2018-Feb-16 09:47N 40°47' W 073°55'0 0.0
2018-Feb-15 22:04N 40°47' W 073°55'0 0.0
2018-Feb-15 22:00N 40°47' W 073°55'0 0.0
2018-Feb-15 21:06N 40°47' W 073°55'0 0.0
2018-Feb-15 20:21N 40°47' W 073°55'0 0.0
2018-Feb-15 20:00N 40°47' W 073°55'0 0.0
2018-Feb-15 19:26N 40°47' W 073°55'0 0.0
2018-Feb-15 18:58N 40°47' W 073°55'0 0.0
2018-Feb-15 18:22N 40°47' W 073°55'0 0.0
2018-Feb-15 17:51N 40°47' W 073°55'0 0.0
2018-Feb-15 16:51N 40°47' W 073°55'0 0.0
2018-Feb-14 18:32N 40°47' W 073°55'0 3.5
2018-Feb-14 18:28N 40°47' W 073°55'2 5.3
2018-Feb-14 18:01N 40°45' W 073°57'3 6.6
2018-Feb-14 17:31N 40°42' W 073°59'4 7.8
2018-Feb-14 17:01N 40°39' W 074°02'0 0.8
2018-Feb-14 16:31N 40°39' W 074°02'0 0.0
2018-Feb-14 16:00N 40°39' W 074°02'0 0.0
2018-Feb-14 15:31N 40°39' W 074°02'0 0.0
2018-Feb-14 15:01N 40°39' W 074°02'0 0.1
2018-Feb-14 14:31N 40°39' W 074°02'4 7.3
2018-Feb-14 14:01N 40°42' W 074°00'3 6.9
2018-Feb-14 13:31N 40°45' W 073°58'3 6.0
2018-Feb-14 13:00N 40°47' W 073°55'0 0.0
2018-Feb-14 12:30N 40°47' W 073°55'0 0.0
2018-Feb-14 12:00N 40°47' W 073°55'0 0.0
2018-Feb-14 11:30N 40°47' W 073°55'0 0.0
2018-Feb-14 10:59N 40°47' W 073°55'0 0.0
2018-Feb-14 10:30N 40°47' W 073°55'0 0.0
2018-Feb-14 10:00N 40°47' W 073°55'0 0.0
2018-Feb-14 09:30N 40°47' W 073°55'0 0.0
2018-Feb-14 09:01N 40°47' W 073°55'0 0.0
2018-Feb-14 08:30N 40°47' W 073°55'0 0.0
2018-Feb-14 08:01N 40°47' W 073°55'0 0.0
2018-Feb-14 07:30N 40°47' W 073°55'0 0.0
2018-Feb-14 07:00N 40°47' W 073°55'0 0.0
2018-Feb-14 06:30N 40°47' W 073°55'0 0.0
2018-Feb-14 06:00N 40°47' W 073°55'0 0.0
2018-Feb-14 05:31N 40°47' W 073°55'0 0.0
2018-Feb-14 05:00N 40°47' W 073°55'0 0.0
2018-Feb-14 04:30N 40°47' W 073°55'0 0.0
2018-Feb-14 04:00N 40°47' W 073°55'0 0.0
2018-Feb-14 03:30N 40°47' W 073°55'0 0.0
2018-Feb-14 03:00N 40°47' W 073°55'0 0.0
2018-Feb-14 02:30N 40°47' W 073°55'0 0.0
2018-Feb-14 02:00N 40°47' W 073°55'0 0.0
2018-Feb-14 01:31N 40°47' W 073°55'0 0.0
2018-Feb-14 01:00N 40°47' W 073°55'0 0.0
2018-Feb-14 00:30N 40°47' W 073°55'0 0.0
2018-Feb-13 23:59N 40°47' W 073°55'0 0.0
2018-Feb-13 23:30N 40°47' W 073°55'0 0.0
2018-Feb-13 23:00N 40°47' W 073°55'0 0.0
2018-Feb-13 22:30N 40°47' W 073°55'0 0.0
2018-Feb-13 22:00N 40°47' W 073°55'0 0.0
2018-Feb-13 21:28N 40°47' W 073°55'0 0.0
2018-Feb-13 20:59N 40°47' W 073°55'0 0.0
2018-Feb-13 20:27N 40°47' W 073°55'0 0.0
2018-Feb-13 20:00N 40°47' W 073°55'0 0.0
2018-Feb-13 19:27N 40°47' W 073°55'0 0.0
2018-Feb-13 18:50N 40°47' W 073°55'0 1.5
2018-Feb-13 18:30N 40°47' W 073°56'3 6.9
2018-Feb-13 18:01N 40°44' W 073°58'3 6.7
2018-Feb-13 17:30N 40°41' W 074°01'3 5.6
2018-Feb-13 17:00N 40°39' W 074°02'0 0.0
2018-Feb-13 16:31N 40°39' W 074°02'0 0.0
2018-Feb-13 16:00N 40°39' W 074°02'  

Dump ship's entire track history